WetterOnline ( http://www.wetteronline.de )

Wetter aktuell Pforzheim

Aktuelles Wetter: Mühlacker (245m)

6-stündlich | Neueste Meldungen
Ortszeit Temperatur Wetter
So, 22.04. 14:00 26.6° C leicht bewölkt
So, 22.04. 8:00 9.9° C wolkenlos
So, 22.04. 2:00 9.4° C wolkenlos
Sa, 21.04. 20:00 19.2° C wolkenlos
Sa, 21.04. 14:00 25.9° C wolkenlos
Sa, 21.04. 8:00 8.5° C wolkenlos
Sa, 21.04. 2:00 9.3° C leicht bewölkt
Fr, 20.04. 20:00 20.6° C wolkig
Ortszeit Temperatur Wetter
So, 22.04. 16:10 27.3° C leicht bewölkt
So, 22.04. 16:00 27.4° C wolkenlos
So, 22.04. 15:50 27.4° C wolkenlos
So, 22.04. 15:40 27.3° C fast wolkenlos
So, 22.04. 15:30 27.5° C leicht bewölkt
So, 22.04. 15:20 27.5° C leicht bewölkt
So, 22.04. 15:00 26.9° C leicht bewölkt
So, 22.04. 14:30 26.6° C wolkig
So, 22.04. 14:00 26.6° C leicht bewölkt
So, 22.04. 13:30 26.4° C fast wolkenlos
So, 22.04. 13:00 25.6° C wolkenlos
Ortszeit Relative Feuchte Sichtweite
So, 22.04. 14:00 33% 30 km
So, 22.04. 8:00 96% 7 km
So, 22.04. 2:00 93% 13 km
Sa, 21.04. 20:00 65% 45 km
Sa, 21.04. 14:00 32% 30 km
Sa, 21.04. 8:00 93% 12 km
Sa, 21.04. 2:00 90% 16 km
Fr, 20.04. 20:00 60% 50 km
Ortszeit Relative Feuchte Sichtweite
So, 22.04. 16:10 29% -
So, 22.04. 16:00 28% 40 km
So, 22.04. 15:50 28% -
So, 22.04. 15:40 36% -
So, 22.04. 15:30 32% 40 km
So, 22.04. 15:20 32% -
So, 22.04. 15:00 33% 40 km
So, 22.04. 14:30 32% 40 km
So, 22.04. 14:00 33% 30 km
So, 22.04. 13:30 38% 40 km
So, 22.04. 13:00 40% 40 km
Ortszeit Niederschlagsmenge Niederschlagsart
So, 22.04. 14:00 0.0 l/m2 in 6 Std. -
So, 22.04. 8:00 0.0 l/m2 in 12 Std. -
So, 22.04. 2:00 0.0 l/m2 in 6 Std. -
Sa, 21.04. 20:00 0.0 l/m2 in 12 Std. -
Sa, 21.04. 14:00 0.0 l/m2 in 6 Std. -
Sa, 21.04. 8:00 0.0 l/m2 in 12 Std. -
Sa, 21.04. 2:00 0.0 l/m2 in 6 Std. -
Fr, 20.04. 20:00 0.0 l/m2 in 12 Std. -
Ortszeit Niederschlagsmenge Niederschlagsart
So, 22.04. 16:10 keine Meldung -
So, 22.04. 16:00 0.0 l/m2 in 1 Std. -
So, 22.04. 15:50 keine Meldung -
So, 22.04. 15:40 keine Meldung -
So, 22.04. 15:30 0.0 l/m2 in 1 Std. -
So, 22.04. 15:20 keine Meldung -
So, 22.04. 15:00 0.0 l/m2 in 1 Std. -
So, 22.04. 14:30 0.0 l/m2 in 1 Std. -
So, 22.04. 14:00 0.0 l/m2 in 1 Std. -
So, 22.04. 13:30 0.0 l/m2 in 1 Std. -
So, 22.04. 13:00 0.0 l/m2 in 1 Std. -
Ortszeit Stärke Spitze Richtung
km/h Bft. km/h Grad Sektor
So, 22.04. 14:00 7 2 25 280° W
So, 22.04. 8:00 4 1 7 270° W
So, 22.04. 2:00 0 0 4 - -
Sa, 21.04. 20:00 4 1 22 40° NO
Sa, 21.04. 14:00 7 2 22 320° NW
Sa, 21.04. 8:00 0 0 7 - -
Sa, 21.04. 2:00 4 1 7 280° W
Fr, 20.04. 20:00 0 0 18 - -
Ortszeit Stärke Spitze Richtung
km/h Bft. km/h Grad Sektor
So, 22.04. 16:10 18 3 - 270° W
So, 22.04. 16:00 11 2 25 260° W
So, 22.04. 15:50 11 2 - 260° W
So, 22.04. 15:40 13 3 - 260° W
So, 22.04. 15:30 13 3 22 270° W
So, 22.04. 15:20 13 3 - 270° W
So, 22.04. 15:00 11 2 25 330° NW
So, 22.04. 14:30 11 2 22 260° W
So, 22.04. 14:00 7 2 18 280° W
So, 22.04. 13:30 9 2 15 300° NW
So, 22.04. 13:00 11 2 25 290° W
Ortszeit Untergrenze Bedeckung Gattung
total tief tief mittel hoch
So, 22.04. 14:00 10500 m 5/8 0/8 - - -
So, 22.04. 8:00 - 0/8 0/8 - - -
So, 22.04. 2:00 - 0/8 0/8 - - -
Sa, 21.04. 20:00 - 0/8 0/8 - - -
Sa, 21.04. 14:00 12000 m 0/8 0/8 - - -
Sa, 21.04. 8:00 - 0/8 0/8 - - -
Sa, 21.04. 2:00 10500 m 6/8 0/8 - - -
Fr, 20.04. 20:00 10500 m 8/8 0/8 - - -
Ortszeit Bedeckungsgrad in Achtel und Wolkenuntergrenze
So, 22.04. 16:10 6(10500m)
So, 22.04. 16:00 4(10500m)
So, 22.04. 15:50 keine Wolken
So, 22.04. 15:40 2(10500m)
So, 22.04. 15:30 6(10500m)
So, 22.04. 15:20 6(10500m)
So, 22.04. 15:00 7(10500m)
So, 22.04. 14:30 8(10500m)
So, 22.04. 14:00 5(10500m)
So, 22.04. 13:30 1(10500m)
So, 22.04. 13:00 1(10500m)
Ortszeit Luftdruck NN (hPa) Tendenz (hPa in 3 Std.)
So, 22.04. 14:00 1014 - 1,2
So, 22.04. 8:00 1017 - 0,3
So, 22.04. 2:00 1018 - 0,1
Sa, 21.04. 20:00 1017 - 0,8
Sa, 21.04. 14:00 1019 - 1,2
Sa, 21.04. 8:00 1021 + 0,5
Sa, 21.04. 2:00 1021 - 0,3
Fr, 20.04. 20:00 1020 - 0,8
Ortszeit Luftdruck NN (hPa) Tendenz (hPa in 3 Std.)
So, 22.04. 16:10 1012 keine Meldung
So, 22.04. 16:00 1012 - 1,9
So, 22.04. 15:50 1012 keine Meldung
So, 22.04. 15:40 1012 keine Meldung
So, 22.04. 15:30 1013 - 1,7
So, 22.04. 15:20 1013 keine Meldung
So, 22.04. 15:00 1013 - 1,6
So, 22.04. 14:30 1013 - 1,3
So, 22.04. 14:00 1014 - 1,2
So, 22.04. 13:30 1014 - 0,9
So, 22.04. 13:00 1014 - 0,7
Ortszeit Schneehöhe (cm)
So, 22.04. 14:00 0
So, 22.04. 8:00 0
So, 22.04. 2:00 0
Sa, 21.04. 20:00 0
Sa, 21.04. 14:00 0
Sa, 21.04. 8:00 0
Sa, 21.04. 2:00 0
Fr, 20.04. 20:00 0
Ortszeit Schneehöhe (cm)
So, 22.04. 16:10 0
So, 22.04. 16:00 0
So, 22.04. 15:50 0
So, 22.04. 15:40 0
So, 22.04. 15:30 0
So, 22.04. 15:20 0
So, 22.04. 15:00 0
So, 22.04. 14:30 0
So, 22.04. 14:00 0
So, 22.04. 13:30 0
So, 22.04. 13:00 0
Link zu dieser Seite / Seite empfehlen

Das Wetter in ...